createdAt,value
2022-11-12T00:01:34.698Z,5.65
2022-11-12T00:04:20.420Z,6.03
2022-11-12T00:07:06.111Z,5.88
2022-11-12T00:09:51.816Z,5.70
2022-11-12T00:12:37.538Z,6.00
2022-11-12T00:15:23.374Z,5.55
2022-11-12T00:18:09.336Z,5.57
2022-11-12T00:20:55.168Z,5.43
2022-11-12T00:23:40.895Z,5.90
2022-11-12T00:26:26.864Z,5.43
2022-11-12T00:29:12.566Z,5.78
2022-11-12T00:31:58.328Z,5.72
2022-11-12T00:34:44.027Z,6.65
2022-11-12T00:37:29.703Z,7.90
2022-11-12T00:40:16.005Z,8.70
2022-11-12T00:43:02.119Z,7.20
2022-11-12T00:45:47.894Z,7.60
2022-11-12T00:48:33.741Z,5.93
2022-11-12T00:51:19.478Z,6.95
2022-11-12T00:54:05.357Z,6.10
2022-11-12T00:56:51.796Z,8.00
2022-11-12T00:59:37.562Z,7.25
2022-11-12T01:02:23.432Z,6.70
2022-11-12T01:05:09.322Z,7.05
2022-11-12T01:07:56.324Z,7.70
2022-11-12T01:10:42.273Z,7.95
2022-11-12T01:13:27.977Z,7.47
2022-11-12T01:16:20.044Z,7.65
2022-11-12T01:19:07.929Z,6.82
2022-11-12T01:21:53.798Z,6.80
2022-11-12T01:24:39.590Z,7.45
2022-11-12T01:27:25.338Z,7.32
2022-11-12T01:30:11.504Z,6.88
2022-11-12T01:32:57.433Z,6.53
2022-11-12T01:35:43.125Z,6.30
2022-11-12T01:38:29.197Z,6.38
2022-11-12T01:41:26.051Z,7.07
2022-11-12T01:44:21.790Z,6.68
2022-11-12T01:47:17.993Z,6.32
2022-11-12T01:50:20.719Z,6.20
2022-11-12T01:53:09.193Z,5.97
2022-11-12T01:55:55.210Z,5.90
2022-11-12T01:58:41.327Z,6.25
2022-11-12T02:01:27.242Z,5.97
2022-11-12T02:04:12.880Z,5.73
2022-11-12T02:06:58.901Z,5.18
2022-11-12T02:09:44.600Z,5.63
2022-11-12T02:12:48.824Z,6.07
2022-11-12T02:15:35.073Z,5.53
2022-11-12T02:18:20.769Z,5.77
2022-11-12T02:21:08.686Z,5.68
2022-11-12T02:24:17.636Z,6.00
2022-11-12T02:27:03.443Z,4.97
2022-11-12T02:29:49.253Z,5.82
2022-11-12T02:32:34.920Z,5.53
2022-11-12T02:35:20.758Z,5.40
2022-11-12T02:38:06.607Z,5.45
2022-11-12T02:40:52.677Z,5.40
2022-11-12T02:43:39.280Z,4.93
2022-11-12T02:46:25.529Z,5.43
2022-11-12T02:49:11.301Z,6.15
2022-11-12T02:51:57.113Z,6.53
2022-11-12T02:54:42.712Z,6.25
2022-11-12T02:57:30.574Z,6.55
2022-11-12T03:00:16.642Z,5.97
2022-11-12T03:03:02.761Z,6.53
2022-11-12T03:05:59.458Z,6.10
2022-11-12T03:08:45.571Z,6.25
2022-11-12T03:11:31.230Z,5.75
2022-11-12T03:14:16.827Z,6.57
2022-11-12T03:17:02.560Z,6.55
2022-11-12T03:19:48.262Z,6.18
2022-11-12T03:22:34.155Z,6.25
2022-11-12T03:25:19.962Z,5.75
2022-11-12T03:28:13.335Z,5.87
2022-11-12T03:30:59.850Z,6.30
2022-11-12T03:33:45.439Z,5.68
2022-11-12T03:36:31.099Z,5.70
2022-11-12T03:39:17.014Z,6.10
2022-11-12T03:42:03.322Z,5.90
2022-11-12T03:44:49.193Z,5.90
2022-11-12T03:47:35.016Z,5.57
2022-11-12T03:50:21.661Z,6.15
2022-11-12T03:53:07.302Z,6.55
2022-11-12T03:55:53.183Z,5.50
2022-11-12T03:58:39.074Z,6.03
2022-11-12T04:01:24.989Z,6.13
2022-11-12T04:04:10.801Z,5.95
2022-11-12T04:07:15.001Z,5.80
2022-11-12T04:10:01.015Z,5.10
2022-11-12T04:13:05.232Z,5.80
2022-11-12T04:16:10.823Z,5.22
2022-11-12T04:19:17.821Z,4.85
2022-11-12T04:22:09.610Z,5.13
2022-11-12T04:25:13.633Z,4.23
2022-11-12T04:27:59.618Z,4.13
2022-11-12T04:30:45.436Z,4.90
2022-11-12T04:33:31.280Z,4.15
2022-11-12T04:36:16.963Z,3.88
2022-11-12T04:39:02.953Z,4.30
2022-11-12T04:42:07.058Z,4.57
2022-11-12T04:45:02.777Z,4.53
2022-11-12T04:47:48.590Z,4.20
2022-11-12T04:50:34.306Z,4.10
2022-11-12T04:53:20.352Z,3.77
2022-11-12T04:56:06.638Z,4.10
2022-11-12T04:58:52.737Z,5.13
2022-11-12T05:01:38.475Z,4.03
2022-11-12T05:04:27.736Z,4.15
2022-11-12T05:07:14.139Z,4.13
2022-11-12T05:09:59.806Z,3.90
2022-11-12T05:12:45.594Z,4.38
2022-11-12T05:15:31.354Z,4.00
2022-11-12T05:18:17.230Z,3.85
2022-11-12T05:21:22.943Z,3.93
2022-11-12T05:24:22.149Z,3.58
2022-11-12T05:27:17.097Z,3.83
2022-11-12T05:30:02.921Z,3.20
2022-11-12T05:32:48.890Z,3.53
2022-11-12T05:35:34.709Z,3.40
2022-11-12T05:38:20.434Z,3.80
2022-11-12T05:41:06.230Z,3.35
2022-11-12T05:43:52.207Z,2.80
2022-11-12T05:46:37.899Z,3.50
2022-11-12T05:49:23.786Z,3.43
2022-11-12T05:52:09.575Z,3.08
2022-11-12T05:54:55.302Z,3.30
2022-11-12T05:57:41.113Z,2.90
2022-11-12T06:00:26.881Z,3.90
2022-11-12T06:03:12.697Z,3.23
2022-11-12T06:05:59.197Z,3.20
2022-11-12T06:08:44.902Z,3.97
2022-11-12T06:11:30.927Z,3.53
2022-11-12T06:14:16.709Z,3.70
2022-11-12T06:17:02.411Z,3.63
2022-11-12T06:19:48.398Z,3.00
2022-11-12T06:22:34.268Z,2.88
2022-11-12T06:25:20.035Z,2.63
2022-11-12T06:28:06.028Z,2.70
2022-11-12T06:30:51.845Z,3.10
2022-11-12T06:33:37.920Z,2.92
2022-11-12T06:36:23.733Z,2.92
2022-11-12T06:39:11.267Z,2.30
2022-11-12T06:41:57.385Z,2.95
2022-11-12T06:44:43.055Z,2.93
2022-11-12T06:47:28.887Z,3.13
2022-11-12T06:50:15.022Z,2.85
2022-11-12T06:53:01.175Z,2.60
2022-11-12T06:55:46.735Z,2.47
2022-11-12T06:58:32.606Z,2.80
2022-11-12T07:01:18.651Z,2.60
2022-11-12T07:04:04.624Z,2.78
2022-11-12T07:06:50.505Z,2.92
2022-11-12T07:09:36.294Z,2.67
2022-11-12T07:12:22.078Z,2.43
2022-11-12T07:15:08.073Z,2.67
2022-11-12T07:17:54.083Z,3.00
2022-11-12T07:20:39.835Z,2.90
2022-11-12T07:23:25.885Z,2.63
2022-11-12T07:26:23.054Z,3.10
2022-11-12T07:29:08.985Z,3.10
2022-11-12T07:31:54.976Z,3.22
2022-11-12T07:34:40.570Z,3.28
2022-11-12T07:37:26.595Z,3.00
2022-11-12T07:40:12.665Z,2.60
2022-11-12T07:42:59.259Z,3.00
2022-11-12T07:45:45.057Z,3.10
2022-11-12T07:48:30.944Z,3.03
2022-11-12T07:51:18.150Z,2.28
2022-11-12T07:54:04.455Z,1.90
2022-11-12T07:56:50.263Z,2.15
2022-11-12T07:59:35.973Z,2.20
2022-11-12T08:02:21.846Z,2.25
2022-11-12T08:05:14.507Z,2.22
2022-11-12T08:08:03.609Z,2.40
2022-11-12T08:10:59.381Z,2.50
2022-11-12T08:13:45.199Z,1.85
2022-11-12T08:16:31.187Z,1.60
2022-11-12T08:19:17.354Z,1.40
2022-11-12T08:22:03.091Z,1.33
2022-11-12T08:24:48.772Z,1.25
2022-11-12T08:27:34.799Z,1.30
2022-11-12T08:30:20.401Z,1.20
2022-11-12T08:33:06.941Z,1.67
2022-11-12T08:35:52.837Z,1.43
2022-11-12T08:38:39.348Z,1.17
2022-11-12T08:41:24.998Z,1.17
2022-11-12T08:44:10.631Z,1.23
2022-11-12T08:46:56.530Z,1.40
2022-11-12T08:49:47.622Z,1.27
2022-11-12T08:52:33.498Z,1.70
2022-11-12T08:55:19.400Z,1.60
2022-11-12T08:58:05.527Z,2.08
2022-11-12T09:00:51.456Z,1.80
2022-11-12T09:03:37.525Z,1.60
2022-11-12T09:06:23.538Z,2.10
2022-11-12T09:09:09.676Z,1.77
2022-11-12T09:11:55.554Z,2.38
2022-11-12T09:14:41.096Z,1.63
2022-11-12T09:17:29.273Z,1.80
2022-11-12T09:20:15.386Z,2.00
2022-11-12T09:23:05.379Z,1.63
2022-11-12T09:25:51.208Z,1.80
2022-11-12T09:28:37.261Z,1.65
2022-11-12T09:31:23.433Z,1.67
2022-11-12T09:34:09.101Z,1.67
2022-11-12T09:36:55.362Z,1.77
2022-11-12T09:39:41.179Z,1.50
2022-11-12T09:42:26.942Z,1.95
2022-11-12T09:45:28.061Z,1.60
2022-11-12T09:48:17.222Z,1.50
2022-11-12T09:51:06.073Z,1.63
2022-11-12T09:53:56.666Z,1.73
2022-11-12T09:56:42.737Z,1.90
2022-11-12T09:59:35.303Z,1.80
2022-11-12T10:02:35.610Z,1.85
2022-11-12T10:05:22.843Z,2.08
2022-11-12T10:08:26.282Z,2.30
2022-11-12T10:11:54.168Z,1.90
2022-11-12T10:14:55.093Z,2.43
2022-11-12T10:17:43.963Z,2.40
2022-11-12T10:20:52.550Z,2.03
2022-11-12T10:23:43.684Z,2.10
2022-11-12T10:26:29.800Z,2.20
2022-11-12T10:29:38.661Z,2.27
2022-11-12T10:32:24.499Z,2.13
2022-11-12T10:35:10.792Z,2.20
2022-11-12T10:38:04.709Z,2.80
2022-11-12T10:40:50.496Z,2.67
2022-11-12T10:43:36.517Z,2.57
2022-11-12T10:46:27.749Z,2.97
2022-11-12T10:49:13.631Z,3.00
2022-11-12T10:51:59.585Z,3.00
2022-11-12T10:54:46.854Z,2.75
2022-11-12T10:57:35.808Z,2.70
2022-11-12T11:00:22.080Z,2.75
2022-11-12T11:03:17.081Z,2.80
2022-11-12T11:06:07.689Z,2.78
2022-11-12T11:08:54.855Z,3.20
2022-11-12T11:11:51.144Z,2.87
2022-11-12T11:14:38.471Z,2.85
2022-11-12T11:17:24.268Z,2.80
2022-11-12T11:20:25.217Z,2.72
2022-11-12T11:23:22.468Z,2.65
2022-11-12T11:26:36.709Z,2.70
2022-11-12T11:30:02.067Z,2.83
2022-11-12T11:33:09.963Z,2.58
2022-11-12T11:36:26.854Z,2.15
2022-11-12T11:39:39.219Z,2.83
2022-11-12T11:42:36.918Z,2.80
2022-11-12T11:45:47.868Z,2.50
2022-11-12T11:48:55.358Z,3.15
2022-11-12T11:51:57.763Z,3.05
2022-11-12T11:54:55.802Z,3.28
2022-11-12T11:58:00.317Z,3.20
2022-11-12T12:00:59.053Z,3.03
2022-11-12T12:04:07.534Z,3.00
2022-11-12T12:07:19.923Z,3.33
2022-11-12T12:10:11.853Z,2.95
2022-11-12T12:13:05.425Z,3.00
2022-11-12T12:15:57.327Z,2.72
2022-11-12T12:19:06.995Z,2.65
2022-11-12T12:21:52.783Z,2.80
2022-11-12T12:24:42.232Z,2.60
2022-11-12T12:27:31.817Z,2.57
2022-11-12T12:30:19.003Z,2.30
2022-11-12T12:33:14.377Z,2.20
2022-11-12T12:36:02.647Z,2.20
2022-11-12T12:39:03.744Z,2.22
2022-11-12T12:42:01.610Z,2.67
2022-11-12T12:45:01.503Z,2.63
2022-11-12T12:47:47.664Z,2.30
2022-11-12T12:50:33.943Z,2.60
2022-11-12T12:53:22.812Z,2.25
2022-11-12T12:56:14.775Z,2.70
2022-11-12T12:59:04.079Z,2.95
2022-11-12T13:02:19.328Z,2.60
2022-11-12T13:05:05.684Z,2.83
2022-11-12T13:07:51.625Z,2.40
2022-11-12T13:10:43.380Z,2.33
2022-11-12T13:13:32.646Z,2.50
2022-11-12T13:16:55.566Z,2.90
2022-11-12T13:19:46.863Z,2.85
2022-11-12T13:22:32.487Z,3.22
2022-11-12T13:25:18.300Z,2.83
2022-11-12T13:28:04.653Z,2.72
2022-11-12T13:30:50.282Z,2.47
2022-11-12T13:33:36.094Z,3.20
2022-11-12T13:36:26.488Z,2.90
2022-11-12T13:39:16.465Z,3.00
2022-11-12T13:42:47.133Z,3.20
2022-11-12T13:45:33.319Z,3.10
2022-11-12T13:48:29.910Z,3.05
2022-11-12T13:51:24.462Z,2.83
2022-11-12T13:54:35.501Z,3.20
2022-11-12T13:57:21.040Z,3.17
2022-11-12T14:00:21.794Z,3.35
2022-11-12T14:03:07.741Z,3.28
2022-11-12T14:05:53.465Z,3.30
2022-11-12T14:09:00.825Z,3.37
2022-11-12T14:12:05.100Z,3.55
2022-11-12T14:15:15.495Z,3.85
2022-11-12T14:18:15.913Z,3.78
2022-11-12T14:21:06.927Z,3.65
2022-11-12T14:23:52.478Z,3.40
2022-11-12T14:26:39.618Z,3.78
2022-11-12T14:29:29.935Z,3.53
2022-11-12T14:32:18.907Z,3.60
2022-11-12T14:35:31.552Z,3.58
2022-11-12T14:38:27.100Z,3.43
2022-11-12T14:41:24.596Z,3.92
2022-11-12T14:44:13.730Z,3.63
2022-11-12T14:46:59.701Z,4.07
2022-11-12T14:49:47.064Z,4.10
2022-11-12T14:52:35.516Z,4.07
2022-11-12T14:55:24.838Z,3.85
2022-11-12T14:58:14.763Z,4.40
2022-11-12T15:01:47.785Z,4.45
2022-11-12T15:04:26.234Z,5.05
2022-11-12T15:07:24.437Z,4.50
2022-11-12T15:10:32.224Z,4.80
2022-11-12T15:13:18.315Z,4.22
2022-11-12T15:16:05.853Z,4.90
2022-11-12T15:19:05.296Z,5.20
2022-11-12T15:21:56.060Z,5.40
2022-11-12T15:24:43.995Z,5.22
2022-11-12T15:27:36.343Z,5.50
2022-11-12T15:30:30.731Z,5.18
2022-11-12T15:33:22.494Z,5.55
2022-11-12T15:36:26.180Z,5.57
2022-11-12T15:39:13.063Z,5.97
2022-11-12T15:42:06.929Z,6.75
2022-11-12T15:45:00.470Z,5.78
2022-11-12T15:47:46.281Z,6.70
2022-11-12T15:50:32.388Z,6.60
2022-11-12T15:53:18.044Z,6.35
2022-11-12T15:56:04.867Z,6.55
2022-11-12T15:58:50.872Z,6.50
2022-11-12T16:01:36.651Z,7.18
2022-11-12T16:04:22.416Z,7.63
2022-11-12T16:07:09.224Z,7.45
2022-11-12T16:09:55.378Z,8.20
2022-11-12T16:12:42.073Z,9.43
2022-11-12T16:15:28.066Z,10.88
2022-11-12T16:18:13.702Z,10.33
2022-11-12T16:20:59.453Z,11.23
2022-11-12T16:23:45.228Z,10.60
2022-11-12T16:26:31.120Z,11.43
2022-11-12T16:29:16.812Z,10.82
2022-11-12T16:32:03.188Z,9.90
2022-11-12T16:34:49.071Z,9.02
2022-11-12T16:37:35.311Z,9.52
2022-11-12T16:40:23.316Z,9.32
2022-11-12T16:43:09.320Z,9.23
2022-11-12T16:45:55.063Z,9.43
2022-11-12T16:48:40.960Z,8.93
2022-11-12T16:51:26.548Z,8.70
2022-11-12T16:54:12.423Z,9.32
2022-11-12T16:56:58.133Z,10.30
2022-11-12T16:59:43.920Z,9.53
2022-11-12T17:02:29.840Z,11.05
2022-11-12T17:05:20.528Z,9.40
2022-11-12T17:08:06.195Z,10.00
2022-11-12T17:10:51.996Z,10.45
2022-11-12T17:13:38.860Z,10.47
2022-11-12T17:16:24.570Z,12.13
2022-11-12T17:19:10.500Z,12.38
2022-11-12T17:21:56.128Z,12.65
2022-11-12T17:24:42.006Z,12.18
2022-11-12T17:27:28.429Z,12.27
2022-11-12T17:30:14.383Z,12.40
2022-11-12T17:33:00.713Z,12.35
2022-11-12T17:35:46.837Z,11.60
2022-11-12T17:38:32.638Z,12.30
2022-11-12T17:41:18.439Z,11.20
2022-11-12T17:44:04.378Z,13.27
2022-11-12T17:46:50.703Z,12.15
2022-11-12T17:49:36.574Z,13.82
2022-11-12T17:52:22.114Z,14.32
2022-11-12T17:55:08.648Z,13.97
2022-11-12T17:57:54.557Z,14.93
2022-11-12T18:00:40.424Z,15.48
2022-11-12T18:03:26.596Z,17.00
2022-11-12T18:06:13.852Z,17.67
2022-11-12T18:09:14.666Z,17.50
2022-11-12T18:12:01.100Z,18.17
2022-11-12T18:14:47.180Z,18.65
2022-11-12T18:17:33.555Z,18.05
2022-11-12T18:20:19.961Z,19.38
2022-11-12T18:23:05.819Z,18.40
2022-11-12T18:25:51.868Z,19.67
2022-11-12T18:28:37.627Z,20.42
2022-11-12T18:31:24.080Z,19.20
2022-11-12T18:34:11.446Z,18.92
2022-11-12T18:36:57.509Z,20.53
2022-11-12T18:39:43.377Z,20.15
2022-11-12T18:42:29.430Z,19.60
2022-11-12T18:45:15.071Z,20.13
2022-11-12T18:48:00.888Z,19.33
2022-11-12T18:50:46.920Z,19.03
2022-11-12T18:53:33.048Z,18.50
2022-11-12T18:56:20.004Z,18.67
2022-11-12T18:59:06.414Z,19.17
2022-11-12T19:01:51.942Z,20.10
2022-11-12T19:04:44.034Z,20.83
2022-11-12T19:07:31.739Z,20.08
2022-11-12T19:10:17.837Z,19.88
2022-11-12T19:13:05.173Z,18.02
2022-11-12T19:15:50.956Z,19.15
2022-11-12T19:18:36.732Z,19.30
2022-11-12T19:21:23.739Z,19.70
2022-11-12T19:24:09.598Z,19.83
2022-11-12T19:26:55.405Z,23.50
2022-11-12T19:29:41.415Z,19.52
2022-11-12T19:32:27.376Z,19.47
2022-11-12T19:35:13.026Z,20.67
2022-11-12T19:37:58.896Z,20.60
2022-11-12T19:40:44.552Z,18.90
2022-11-12T19:43:30.344Z,20.17
2022-11-12T19:46:16.547Z,18.70
2022-11-12T19:49:02.520Z,18.65
2022-11-12T19:51:48.223Z,19.70
2022-11-12T19:54:34.128Z,19.02
2022-11-12T19:57:19.989Z,19.25
2022-11-12T20:00:06.626Z,19.33
2022-11-12T20:02:52.206Z,19.58
2022-11-12T20:05:38.166Z,19.95
2022-11-12T20:08:24.689Z,19.35
2022-11-12T20:11:10.813Z,40.67
2022-11-12T20:13:56.693Z,42.23
2022-11-12T20:16:42.453Z,65.95
2022-11-12T20:19:28.135Z,39.03
2022-11-12T20:22:14.110Z,21.90
2022-11-12T20:24:59.823Z,29.50
2022-11-12T20:27:45.660Z,29.10
2022-11-12T20:30:31.704Z,20.67
2022-11-12T20:33:17.701Z,17.48
2022-11-12T20:36:14.014Z,16.70
2022-11-12T20:39:00.295Z,14.95
2022-11-12T20:41:45.929Z,16.27
2022-11-12T20:44:31.659Z,15.05
2022-11-12T20:47:17.554Z,14.90
2022-11-12T20:50:04.136Z,17.75
2022-11-12T20:52:50.161Z,14.40
2022-11-12T20:55:36.158Z,14.57
2022-11-12T20:58:22.141Z,13.30
2022-11-12T21:01:12.814Z,14.77
2022-11-12T21:03:58.729Z,13.60
2022-11-12T21:06:45.036Z,14.57
2022-11-12T21:09:31.151Z,14.83
2022-11-12T21:12:17.232Z,15.52
2022-11-12T21:15:04.021Z,15.50
2022-11-12T21:17:51.558Z,14.80
2022-11-12T21:20:37.851Z,15.38
2022-11-12T21:23:23.913Z,17.97
2022-11-12T21:26:15.179Z,15.45
2022-11-12T21:29:01.435Z,15.40
2022-11-12T21:31:47.277Z,15.38
2022-11-12T21:34:33.017Z,15.75
2022-11-12T21:37:20.115Z,14.43
2022-11-12T21:40:06.821Z,14.13
2022-11-12T21:42:52.374Z,13.55
2022-11-12T21:45:38.163Z,14.60
2022-11-12T21:48:24.112Z,15.35
2022-11-12T21:51:14.151Z,18.83
2022-11-12T21:54:01.747Z,19.25
2022-11-12T21:56:47.637Z,14.75
2022-11-12T21:59:33.545Z,12.77
2022-11-12T22:02:19.196Z,13.90
2022-11-12T22:05:05.386Z,13.63
2022-11-12T22:07:51.704Z,12.60
2022-11-12T22:10:37.912Z,13.68
2022-11-12T22:13:27.772Z,13.25
2022-11-12T22:16:21.582Z,12.88
2022-11-12T22:19:07.646Z,13.87
2022-11-12T22:21:53.422Z,14.60
2022-11-12T22:24:39.276Z,18.23
2022-11-12T22:27:25.837Z,17.65
2022-11-12T22:30:12.312Z,17.10
2022-11-12T22:32:58.178Z,16.33
2022-11-12T22:35:43.657Z,15.25
2022-11-12T22:38:36.325Z,15.60
2022-11-12T22:41:27.370Z,14.50
2022-11-12T22:44:13.360Z,17.45
2022-11-12T22:46:59.356Z,16.50
2022-11-12T22:49:45.018Z,15.00
2022-11-12T22:52:30.754Z,16.15
2022-11-12T22:55:16.438Z,15.13
2022-11-12T22:58:02.048Z,15.07
2022-11-12T23:00:48.049Z,14.90
2022-11-12T23:03:34.434Z,15.88
2022-11-12T23:06:20.531Z,15.13
2022-11-12T23:09:06.383Z,15.00
2022-11-12T23:11:52.271Z,16.52
2022-11-12T23:14:38.041Z,14.73
2022-11-12T23:17:23.820Z,13.27
2022-11-12T23:20:09.842Z,14.13
2022-11-12T23:22:55.416Z,16.20
2022-11-12T23:25:41.204Z,16.13
2022-11-12T23:28:27.363Z,13.10
2022-11-12T23:31:16.077Z,14.77
2022-11-12T23:34:01.985Z,14.60
2022-11-12T23:36:47.627Z,15.15
2022-11-12T23:39:33.507Z,14.50
2022-11-12T23:42:19.273Z,14.03
2022-11-12T23:45:05.683Z,14.48
2022-11-12T23:47:51.548Z,14.82
2022-11-12T23:50:37.369Z,14.23
2022-11-12T23:53:23.262Z,14.45
2022-11-12T23:56:10.338Z,13.17
2022-11-12T23:58:56.379Z,14.15
